Time;durP1;ratioP1;P1;durP2;ratioP2;P2;SDS_P1;SDS_P2;PMS_P1;PMS_P2;Temp;Humidity;BMP_temperature;BMP_pressure;BME280_temperature;BME280_humidity;BME280_pressure;Samples;Min_cycle;Max_cycle;Signal;HPM_P1;HPM_P2
2023/05/31 00:01:15;;;;;;;7.43;1.92;;;14.30;94.80;;;13.09;100.00;98055.50;4992858;28;20120;-71
2023/05/31 00:03:43;;;;;;;6.03;1.52;;;14.30;94.80;;;13.09;100.00;98052.88;5010617;28;20569;-71
2023/05/31 00:06:10;;;;;;;5.32;2.03;;;14.30;95.10;;;13.00;100.00;98054.16;4968473;28;20517;-71
2023/05/31 00:08:39;;;;;;;9.93;1.98;;;14.20;95.00;;;12.92;100.00;98058.88;5007531;28;20049;-71
2023/05/31 00:11:07;;;;;;;6.68;1.83;;;14.20;95.20;;;12.92;100.00;98056.25;4994686;28;20067;-71
2023/05/31 00:13:34;;;;;;;7.82;1.70;;;14.20;95.20;;;12.61;100.00;98056.75;5007069;28;20805;-71
2023/05/31 00:16:01;;;;;;;7.05;1.80;;;14.10;95.60;;;12.34;100.00;98057.88;5003755;28;20112;-72
2023/05/31 00:18:28;;;;;;;7.50;1.95;;;13.90;95.80;;;12.21;100.00;98054.09;5006994;28;20049;-71
2023/05/31 00:20:55;;;;;;;9.07;1.98;;;13.80;96.30;;;12.18;100.00;98061.16;5007746;28;20123;-72
2023/05/31 00:23:22;;;;;;;5.95;1.88;;;13.70;96.80;;;12.40;100.00;98061.13;5011307;28;20054;-72
2023/05/31 00:25:49;;;;;;;5.72;1.70;;;13.70;96.70;;;12.34;100.00;98059.63;5003843;28;20057;-71
2023/05/31 00:28:17;;;;;;;6.15;1.80;;;13.70;96.90;;;12.25;100.00;98055.66;4989793;28;20502;-72
2023/05/31 00:30:44;;;;;;;8.05;2.08;;;13.60;97.20;;;12.22;100.00;98052.31;4987274;28;20041;-71
2023/05/31 00:33:12;;;;;;;11.35;1.95;;;13.60;97.40;;;12.37;100.00;98056.06;4998727;28;20168;-73
2023/05/31 00:35:38;;;;;;;10.60;2.40;;;13.50;97.50;;;12.36;100.00;98049.97;5002892;28;20134;-71
2023/05/31 00:38:07;;;;;;;6.65;1.90;;;13.60;97.70;;;12.23;100.00;98048.81;5009258;28;20072;-71
2023/05/31 00:40:34;;;;;;;6.82;2.10;;;13.60;97.70;;;12.26;100.00;98049.53;5005341;28;20049;-71
2023/05/31 00:43:01;;;;;;;8.45;2.00;;;13.50;97.90;;;12.28;100.00;98055.50;5009947;28;20081;-71
2023/05/31 00:45:28;;;;;;;8.40;2.03;;;13.50;98.10;;;12.37;100.00;98058.66;4988762;28;20050;-71
2023/05/31 00:48:00;;;;;;;10.57;2.17;;;13.50;98.20;;;12.23;100.00;98052.25;4985315;28;20046;-72
2023/05/31 00:50:29;;;;;;;4.88;1.85;;;13.50;98.50;;;12.30;100.00;98055.47;5001299;28;20862;-71
2023/05/31 00:52:57;;;;;;;8.73;2.10;;;13.50;98.60;;;12.32;100.00;98054.47;5007912;28;20076;-72
2023/05/31 00:55:25;;;;;;;7.95;2.30;;;13.50;98.70;;;12.36;100.00;98052.56;5003658;28;20521;-72
2023/05/31 00:57:52;;;;;;;5.70;2.05;;;13.50;98.90;;;12.33;100.00;98057.94;4979045;28;20139;-71
2023/05/31 01:00:19;;;;;;;9.45;2.35;;;13.50;99.00;;;12.28;100.00;98055.50;5006031;28;20467;-71
2023/05/31 01:02:50;;;;;;;9.90;2.13;;;13.50;99.10;;;12.32;100.00;98058.84;5003088;28;20132;-71
2023/05/31 01:05:17;;;;;;;8.20;2.13;;;13.50;99.20;;;12.39;100.00;98056.84;5007359;28;20081;-71
2023/05/31 01:07:45;;;;;;;7.93;2.13;;;13.50;99.40;;;12.30;100.00;98058.06;5012046;28;20478;-71
2023/05/31 01:10:13;;;;;;;8.00;2.28;;;13.50;99.50;;;12.25;100.00;98054.81;5007361;28;20553;-71
2023/05/31 01:13:16;;;;;;;13.13;2.45;;;13.50;99.50;;;12.37;100.00;98056.91;4987449;28;20046;-72
2023/05/31 01:15:58;;;;;;;8.98;2.05;;;13.50;99.80;;;12.22;100.00;98054.91;5002539;28;20164;-72
2023/05/31 01:18:36;;;;;;;9.02;2.70;;;13.40;99.90;;;12.09;100.00;98058.03;5007902;28;20113;-71
2023/05/31 01:21:05;;;;;;;7.78;2.30;;;13.30;99.90;;;11.90;100.00;98062.28;5001704;28;20061;-71
2023/05/31 01:23:54;;;;;;;9.85;1.90;;;13.20;99.90;;;11.72;100.00;98069.91;4982245;28;20053;-72
2023/05/31 01:26:37;;;;;;;7.80;2.28;;;13.10;99.90;;;11.76;100.00;98060.19;5003175;28;20061;-71
2023/05/31 01:29:10;;;;;;;9.55;2.50;;;13.00;99.90;;;11.60;100.00;98059.97;4965629;28;20526;-71
2023/05/31 01:31:38;;;;;;;;;;;12.90;99.90;;;11.63;100.00;98059.84;4987447;28;20492;-73
2023/05/31 01:34:06;;;;;;;7.18;2.00;;;12.80;99.90;;;11.57;100.00;98059.25;4990344;28;19925;-71
2023/05/31 01:36:33;;;;;;;6.03;1.85;;;12.80;99.90;;;11.58;100.00;98055.72;4988078;28;20060;-71
2023/05/31 01:39:03;;;;;;;8.40;1.92;;;12.80;99.90;;;11.44;100.00;98057.09;4989998;28;20087;-71
2023/05/31 01:41:35;;;;;;;7.88;2.60;;;12.70;99.90;;;11.36;100.00;98061.75;5003402;28;20081;-71
2023/05/31 01:44:04;;;;;;;6.38;2.13;;;12.70;99.90;;;11.39;100.00;98061.63;5008566;28;20054;-71
2023/05/31 01:46:32;;;;;;;11.35;2.50;;;12.60;99.90;;;11.34;100.00;98066.16;5006074;28;20143;-71
2023/05/31 01:49:00;;;;;;;6.50;2.25;;;12.60;99.90;;;11.38;100.00;98061.69;4996357;28;20080;-71
2023/05/31 01:51:33;;;;;;;6.32;2.13;;;12.60;99.90;;;11.36;100.00;98064.38;4990778;28;20136;-71
2023/05/31 01:54:00;;;;;;;7.03;1.92;;;12.50;99.90;;;11.35;100.00;98056.63;4991143;28;20049;-71
2023/05/31 01:56:30;;;;;;;11.02;2.45;;;12.60;99.90;;;11.36;100.00;98066.09;4984079;28;20628;-71
2023/05/31 01:58:59;;;;;;;9.18;2.30;;;12.60;99.90;;;11.33;100.00;98051.47;4989804;28;20582;-71
2023/05/31 02:01:26;;;;;;;8.98;2.03;;;12.50;99.90;;;11.22;100.00;98058.81;4983136;28;20079;-71
2023/05/31 02:03:53;;;;;;;7.32;2.25;;;12.50;99.90;;;11.20;100.00;98051.09;4990626;28;20092;-71
2023/05/31 02:06:22;;;;;;;6.68;1.98;;;12.50;99.90;;;11.00;100.00;98061.38;5008588;28;20765;-71
2023/05/31 02:08:49;;;;;;;6.80;2.17;;;12.40;99.90;;;10.96;100.00;98062.38;4988468;28;20121;-72
2023/05/31 02:11:16;;;;;;;6.80;1.80;;;12.30;99.90;;;11.12;100.00;98063.53;4967081;28;20123;-71
2023/05/31 02:13:44;;;;;;;6.20;1.80;;;12.30;99.90;;;11.01;100.00;98061.31;4990474;28;20050;-71
2023/05/31 02:16:11;;;;;;;6.82;1.95;;;12.30;99.90;;;11.12;100.00;98063.53;4992964;28;20115;-71
2023/05/31 02:18:38;;;;;;;7.22;1.80;;;12.30;99.90;;;11.18;100.00;98070.25;4989070;28;20136;-71
2023/05/31 02:21:06;;;;;;;7.25;2.47;;;12.30;99.90;;;11.13;100.00;98061.75;5006209;28;20058;-71
2023/05/31 02:23:33;;;;;;;8.93;2.10;;;12.30;99.90;;;11.00;100.00;98061.38;4989574;28;20565;-71
2023/05/31 02:26:00;;;;;;;9.13;2.50;;;12.30;99.90;;;10.93;100.00;98065.13;5011544;28;20758;-71
2023/05/31 02:28:27;;;;;;;6.65;2.22;;;12.20;99.90;;;10.92;100.00;98066.00;4978126;28;20061;-71
2023/05/31 02:30:57;;;;;;;7.03;2.08;;;12.20;99.90;;;10.81;100.00;98067.25;4991611;28;20041;-71
2023/05/31 02:33:25;;;;;;;6.32;2.15;;;12.10;99.90;;;11.02;100.00;98067.38;4995048;28;20054;-71
2023/05/31 02:35:53;;;;;;;8.18;2.10;;;12.10;99.90;;;10.98;100.00;98064.03;5003977;28;20502;-71
2023/05/31 02:38:20;;;;;;;8.60;2.42;;;12.10;99.90;;;10.90;100.00;98063.44;5006968;28;20041;-71
2023/05/31 02:40:48;;;;;;;7.05;2.45;;;12.10;99.90;;;10.75;100.00;98070.06;5009332;28;20131;-71
2023/05/31 02:43:15;;;;;;;8.20;2.10;;;12.10;99.90;;;10.60;100.00;98078.38;4996868;28;20112;-72
2023/05/31 02:45:42;;;;;;;10.48;2.50;;;12.00;99.90;;;10.79;100.00;98074.25;4993639;28;20046;-71
2023/05/31 02:48:10;;;;;;;9.70;2.50;;;;;;;10.64;100.00;98086.00;5009595;28;20081;-71
2023/05/31 02:50:37;;;;;;;6.57;2.15;;;12.00;99.90;;;10.73;100.00;98073.59;4993662;28;20435;-71
2023/05/31 02:53:04;;;;;;;10.68;2.63;;;11.90;99.90;;;10.75;100.00;98074.41;4996207;28;20050;-72
2023/05/31 02:55:32;;;;;;;11.48;2.97;;;11.90;99.90;;;10.76;100.00;98078.69;4997773;28;20080;-71
2023/05/31 02:57:59;;;;;;;8.18;2.40;;;11.90;99.90;;;10.75;100.00;98075.25;4995282;28;20050;-71
2023/05/31 03:00:26;;;;;;;11.30;2.40;;;11.90;99.90;;;10.77;100.00;98070.84;4992971;28;20906;-71
2023/05/31 03:02:54;;;;;;;9.88;2.67;;;11.90;99.90;;;10.74;100.00;98081.34;4991800;28;20049;-72
2023/05/31 03:05:23;;;;;;;11.20;2.85;;;11.90;99.90;;;10.65;100.00;98079.91;5001007;28;20054;-72
2023/05/31 03:07:50;;;;;;;8.82;2.78;;;11.90;99.90;;;10.53;100.00;98074.28;5008263;28;20101;-71
2023/05/31 03:10:17;;;;;;;10.48;2.63;;;11.90;99.90;;;10.56;100.00;98080.25;4996003;28;20046;-71
2023/05/31 03:12:44;;;;;;;7.57;2.05;;;11.80;99.90;;;10.61;100.00;98075.72;5008191;28;20066;-72
2023/05/31 03:15:12;;;;;;;10.57;2.40;;;11.80;99.90;;;10.65;100.00;98081.66;4992094;28;20056;-71
2023/05/31 03:17:39;;;;;;;15.68;2.80;;;11.80;99.90;;;10.48;100.00;98084.00;4977155;28;20050;-71
2023/05/31 03:20:08;;;;;;;10.80;2.55;;;11.80;99.90;;;10.39;100.00;98088.59;5009812;28;20129;-71
2023/05/31 03:22:36;;;;;;;11.57;2.20;;;11.70;99.90;;;10.40;100.00;98092.88;4997851;28;20053;-71
2023/05/31 03:25:05;;;;;;;12.07;3.17;;;11.70;99.90;;;10.33;100.00;98093.13;5009883;28;20056;-71
2023/05/31 03:27:32;;;;;;;10.88;2.65;;;11.60;99.90;;;10.36;100.00;98091.28;4990735;28;20148;-71
2023/05/31 03:30:00;;;;;;;7.38;2.30;;;11.60;99.90;;;10.46;100.00;98091.81;5005570;28;20129;-72
2023/05/31 03:32:27;;;;;;;12.82;2.97;;;11.70;99.90;;;10.33;100.00;98101.78;4992520;28;20425;-71
2023/05/31 03:34:54;;;;;;;7.13;2.25;;;11.60;99.90;;;10.39;100.00;98092.94;5001005;28;20058;-71
2023/05/31 03:37:21;;;;;;;7.88;2.45;;;11.60;99.90;;;10.32;100.00;98101.81;5009104;28;20060;-72
2023/05/31 03:39:50;;;;;;;10.63;3.05;;;11.60;99.90;;;10.33;100.00;98098.31;4994030;28;20104;-71
2023/05/31 03:42:17;;;;;;;7.32;2.03;;;11.50;99.90;;;10.42;100.00;98096.28;4986964;28;20050;-71
2023/05/31 03:44:45;;;;;;;11.30;2.75;;;11.50;99.90;;;10.36;100.00;98101.66;5009505;28;20045;-71
2023/05/31 03:47:13;;;;;;;12.20;2.70;;;11.50;99.90;;;10.30;100.00;98095.84;4999849;28;20088;-71
2023/05/31 03:49:40;;;;;;;12.95;2.75;;;11.60;99.90;;;10.38;100.00;98101.63;5011321;28;20100;-71
2023/05/31 03:52:12;;;;;;;7.57;2.80;;;11.50;99.90;;;10.12;100.00;98103.28;5010186;28;20429;-71
2023/05/31 03:54:40;;;;;;;8.63;2.33;;;11.50;99.90;;;10.17;100.00;98104.00;4994601;28;20046;-71
2023/05/31 03:57:07;;;;;;;11.60;2.40;;;11.40;99.90;;;10.07;100.00;98104.34;5010869;28;20507;-71
2023/05/31 03:59:36;;;;;;;8.48;2.38;;;11.30;99.90;;;10.02;100.00;98102.72;5007108;28;20046;-71
2023/05/31 04:02:03;;;;;;;10.23;2.67;;;11.30;99.90;;;10.03;100.00;98104.44;4992949;28;20046;-71
2023/05/31 04:04:31;;;;;;;9.50;2.55;;;11.30;99.90;;;10.17;100.00;98104.00;5003166;28;20049;-71
2023/05/31 04:06:58;;;;;;;9.77;2.25;;;11.30;99.90;;;10.30;100.00;98104.47;5008889;28;20087;-71
2023/05/31 04:09:25;;;;;;;9.50;2.80;;;11.30;99.90;;;10.29;100.00;98107.97;5002162;28;20054;-72
2023/05/31 04:11:56;;;;;;;9.65;2.35;;;11.40;99.90;;;10.42;100.00;98106.66;4999117;28;20052;-71
2023/05/31 04:14:23;;;;;;;8.27;2.20;;;11.50;99.90;;;10.62;100.00;98108.56;5006201;28;20050;-71
2023/05/31 04:16:50;;;;;;;10.13;3.15;;;11.60;99.90;;;10.75;100.00;98100.38;5005905;28;20049;-72
2023/05/31 04:19:17;;;;;;;6.28;2.67;;;11.70;99.90;;;10.78;100.00;98105.44;4990836;28;20041;-72
2023/05/31 04:21:45;;;;;;;11.77;2.80;;;11.80;99.90;;;10.79;100.00;98105.41;5003981;28;20498;-72
2023/05/31 04:24:12;;;;;;;7.88;2.83;;;11.80;99.90;;;10.94;100.00;98116.13;4986679;28;20042;-72
2023/05/31 04:26:39;;;;;;;13.73;3.38;;;11.90;99.90;;;10.99;100.00;98106.44;5004582;28;20046;-71
2023/05/31 04:29:06;;;;;;;13.55;2.67;;;12.00;99.90;;;11.25;100.00;98103.75;4985569;28;20144;-72
2023/05/31 04:31:36;;;;;;;9.60;2.05;;;12.10;99.90;;;11.38;100.00;98101.53;5002780;28;20471;-71
2023/05/31 04:34:18;;;;;;;10.43;2.95;;;12.20;99.90;;;11.39;100.00;98100.63;4991856;28;20472;-71
2023/05/31 04:36:49;;;;;;;11.55;2.88;;;12.30;99.90;;;11.56;100.00;98109.53;4983338;28;20060;-71
2023/05/31 04:39:19;;;;;;;10.20;3.28;;;12.40;99.90;;;11.56;100.00;98105.19;5005018;28;20180;-71
2023/05/31 04:41:47;;;;;;;12.32;2.67;;;12.50;99.90;;;11.64;100.00;98099.69;4988010;28;20558;-71
2023/05/31 04:44:15;;;;;;;10.50;2.80;;;12.50;99.90;;;11.73;100.00;98100.19;4991735;28;20426;-72
2023/05/31 04:46:43;;;;;;;9.98;2.85;;;12.60;99.90;;;11.81;100.00;98097.28;4990784;28;20046;-71
2023/05/31 04:49:10;;;;;;;7.88;2.40;;;12.70;99.90;;;11.85;100.00;98093.66;5007923;28;20042;-71
2023/05/31 04:51:37;;;;;;;11.82;2.67;;;12.80;99.90;;;11.90;100.00;98098.69;5003770;28;20073;-71
2023/05/31 04:54:05;;;;;;;9.35;2.30;;;12.80;99.90;;;11.90;100.00;98101.31;4984673;28;20729;-71
2023/05/31 04:56:33;;;;;;;8.80;2.42;;;12.80;99.90;;;11.99;100.00;98098.34;5009840;28;20111;-72
2023/05/31 04:59:00;;;;;;;8.38;2.33;;;12.90;99.90;;;12.12;100.00;98099.53;5007248;28;20128;-71
2023/05/31 05:01:28;;;;;;;13.45;3.03;;;13.00;99.90;;;12.21;100.00;98092.28;4984883;28;20160;-71
2023/05/31 05:03:55;;;;;;;7.30;2.58;;;13.00;99.90;;;12.32;100.00;98092.69;4989041;28;20049;-71
2023/05/31 05:06:23;;;;;;;11.07;2.88;;;13.10;99.90;;;12.38;100.00;98091.56;4993245;28;20077;-71
2023/05/31 05:08:51;;;;;;;9.38;2.70;;;13.20;99.90;;;12.49;100.00;98090.22;4992111;28;20458;-72
2023/05/31 05:11:18;;;;;;;10.48;2.88;;;13.30;99.90;;;12.56;100.00;98096.84;5002880;28;20104;-72
2023/05/31 05:13:45;;;;;;;8.30;2.67;;;13.30;99.90;;;12.58;100.00;98096.78;5007237;28;20826;-72
2023/05/31 05:16:12;;;;;;;10.63;2.75;;;13.40;99.90;;;12.60;100.00;98102.78;5001247;28;20054;-71
2023/05/31 05:18:40;;;;;;;14.13;3.35;;;13.40;99.90;;;12.83;100.00;98093.13;5002484;28;20468;-71
2023/05/31 05:21:07;;;;;;;12.40;2.65;;;13.60;99.90;;;12.97;100.00;98096.81;5004994;28;20061;-72
2023/05/31 05:23:35;;;;;;;8.73;2.95;;;13.70;99.90;;;13.16;100.00;98093.44;5003465;28;20058;-71
2023/05/31 05:26:03;;;;;;;12.10;2.83;;;13.80;99.90;;;13.17;100.00;98095.94;5005824;28;20045;-72
2023/05/31 05:28:30;;;;;;;5.80;2.08;;;13.90;99.90;;;13.32;100.00;98098.78;4987300;28;20041;-72
2023/05/31 05:30:57;;;;;;;13.15;2.75;;;14.00;99.90;;;13.47;100.00;98097.28;5008814;28;20048;-71
2023/05/31 05:33:26;;;;;;;10.27;3.17;;;14.20;99.90;;;13.64;100.00;98093.88;4994602;28;20062;-72
2023/05/31 05:35:53;;;;;;;10.63;3.10;;;14.30;99.90;;;13.68;100.00;98098.03;5011730;28;20562;-72
2023/05/31 05:38:20;;;;;;;11.50;2.80;;;14.40;99.90;;;13.85;100.00;98095.47;5006707;28;20042;-71
2023/05/31 05:40:47;;;;;;;9.85;2.70;;;14.40;99.90;;;13.86;100.00;98097.16;5007197;28;20081;-72
2023/05/31 05:43:15;;;;;;;7.13;2.28;;;14.50;99.90;;;13.96;100.00;98095.81;5003654;28;20505;-71
2023/05/31 05:45:42;;;;;;;8.93;2.53;;;14.70;99.90;;;14.06;100.00;98093.59;4988412;28;20050;-72
2023/05/31 05:48:09;;;;;;;10.60;2.80;;;14.70;99.90;;;13.98;100.00;98093.97;4989031;28;20522;-71
2023/05/31 05:50:36;;;;;;;11.43;2.70;;;14.80;99.90;;;14.13;100.00;98091.53;5009265;28;20072;-72
2023/05/31 05:53:03;;;;;;;9.32;2.35;;;14.80;99.90;;;14.18;100.00;98092.16;5004436;28;20076;-72
2023/05/31 05:55:30;;;;;;;13.63;2.95;;;14.90;99.90;;;14.49;100.00;98090.66;5009178;28;20046;-72
2023/05/31 05:57:57;;;;;;;10.07;2.90;;;15.10;99.90;;;14.38;100.00;98105.06;4991758;28;20614;-71
2023/05/31 06:00:25;;;;;;;10.40;2.90;;;15.10;99.90;;;14.42;100.00;98096.16;5004814;28;20141;-72
2023/05/31 06:02:52;;;;;;;9.85;2.65;;;15.20;99.90;;;14.40;100.00;98095.41;4996616;28;20053;-72
2023/05/31 06:05:25;;;;;;;11.10;2.22;;;15.20;99.90;;;14.72;100.00;98094.75;4991270;28;20112;-72
2023/05/31 06:07:53;;;;;;;9.02;2.20;;;15.30;99.90;;;14.75;100.00;98102.41;5003724;28;20056;-72
2023/05/31 06:10:21;;;;;;;8.00;2.85;;;15.40;99.90;;;14.78;100.00;98094.41;4977083;28;20073;-71
2023/05/31 06:12:48;;;;;;;8.73;2.53;;;15.50;99.90;;;14.91;100.00;98092.84;4988841;28;20046;-72
2023/05/31 06:15:15;;;;;;;8.18;2.28;;;15.60;99.90;;;14.97;100.00;98097.78;5001239;28;20046;-72
2023/05/31 06:17:43;;;;;;;9.07;2.80;;;15.70;99.90;;;15.16;100.00;98081.94;4987982;28;20108;-72
2023/05/31 06:20:10;;;;;;;10.73;2.50;;;15.80;99.90;;;15.21;100.00;98079.97;5009115;28;20063;-72
2023/05/31 06:22:38;;;;;;;11.45;2.65;;;16.00;99.90;;;15.31;100.00;98087.31;4991106;28;20134;-72
2023/05/31 06:25:05;;;;;;;9.23;2.22;;;16.00;99.90;;;15.41;100.00;98086.72;4993057;28;20137;-72
2023/05/31 06:27:32;;;;;;;8.95;2.25;;;16.10;99.90;;;15.56;100.00;98087.66;4991464;28;20049;-71
2023/05/31 06:30:00;;;;;;;9.45;2.28;;;16.20;99.90;;;15.67;100.00;98082.69;5004524;28;20073;-72
2023/05/31 06:32:28;;;;;;;10.32;2.15;;;16.30;99.90;;;16.10;100.00;98088.19;5004092;28;20061;-72
2023/05/31 06:34:56;;;;;;;9.00;2.15;;;16.40;99.90;;;15.91;100.00;98094.53;4981243;28;20138;-72
2023/05/31 06:37:23;;;;;;;5.93;1.92;;;16.70;99.90;;;16.07;100.00;98077.84;5007445;28;20644;-72
2023/05/31 06:39:50;;;;;;;6.47;1.90;;;16.80;99.90;;;15.82;100.00;98078.38;4992013;28;20145;-72
2023/05/31 06:42:21;;;;;;;8.93;2.30;;;16.80;99.90;;;16.11;100.00;98075.91;5004057;28;20058;-72
2023/05/31 06:44:48;;;;;;;9.30;2.50;;;16.80;99.90;;;16.16;100.00;98071.25;4990135;28;20081;-72
2023/05/31 06:47:22;;;;;;;7.88;1.90;;;16.80;99.90;;;16.31;100.00;98077.41;4990091;28;20490;-72
2023/05/31 06:49:50;;;;;;;8.90;2.53;;;17.00;99.90;;;16.10;100.00;98072.47;4988381;28;20054;-72
2023/05/31 06:52:17;;;;;;;10.73;2.08;;;17.00;99.90;;;16.17;100.00;98072.94;4974894;28;20096;-72
2023/05/31 06:54:45;;;;;;;5.75;1.70;;;16.90;99.90;;;16.51;100.00;98070.97;4986654;28;20509;-72
2023/05/31 06:57:12;;;;;;;7.68;2.28;;;17.10;99.90;;;16.40;100.00;98073.38;5005089;28;20525;-72
2023/05/31 06:59:39;;;;;;;8.13;2.28;;;17.20;99.90;;;16.48;100.00;98076.41;4993862;28;20053;-72
2023/05/31 07:02:07;;;;;;;8.20;2.17;;;17.20;99.90;;;16.59;100.00;98073.16;5008419;28;20049;-72
2023/05/31 07:04:34;;;;;;;7.78;1.95;;;17.20;99.90;;;16.77;100.00;98072.06;5012232;28;20042;-72
2023/05/31 07:07:02;;;;;;;10.02;2.28;;;17.30;99.90;;;16.95;100.00;98070.16;4989163;28;20049;-72
2023/05/31 07:09:29;;;;;;;6.93;2.10;;;17.50;99.90;;;17.09;100.00;98059.66;4990844;28;20041;-72
2023/05/31 07:11:56;;;;;;;11.68;2.25;;;17.70;99.90;;;17.00;100.00;98052.34;5005819;28;20077;-72
2023/05/31 07:14:23;;;;;;;6.25;1.80;;;17.90;99.90;;;16.95;100.00;98059.66;4982902;28;20221;-73
2023/05/31 07:16:50;;;;;;;11.75;2.75;;;17.70;99.90;;;17.27;100.00;98059.47;4986753;28;20060;-72
2023/05/31 07:19:18;;;;;;;11.77;2.10;;;17.80;99.90;;;17.48;100.00;98062.53;4988987;28;20105;-72
2023/05/31 07:21:45;;;;;;;7.38;2.08;;;18.00;99.90;;;17.51;100.00;98068.41;5010138;28;20108;-72
2023/05/31 07:24:12;;;;;;;9.63;2.20;;;18.20;99.90;;;17.37;100.00;98067.59;4989199;28;20530;-72
2023/05/31 07:26:40;;;;;;;63.20;5.00;;;18.20;99.90;;;17.14;100.00;98054.94;5005452;28;20050;-72
2023/05/31 07:29:07;;;;;;;66.95;5.07;;;18.20;99.90;;;17.26;100.00;98055.97;4992793;28;20061;-72
2023/05/31 07:31:34;;;;;;;30.42;3.40;;;18.20;99.90;;;17.50;100.00;98055.41;5003875;28;20762;-72
2023/05/31 07:34:01;;;;;;;88.25;7.03;;;18.20;99.90;;;17.41;100.00;98059.44;4988856;28;20057;-72
2023/05/31 07:36:28;;;;;;;15.43;2.60;;;18.30;99.90;;;17.72;100.00;98047.84;5005288;28;20053;-72
2023/05/31 07:38:55;;;;;;;54.22;4.63;;;18.40;99.90;;;17.81;100.00;98054.28;5012949;28;20062;-72
2023/05/31 07:41:22;;;;;;;37.95;4.03;;;18.50;99.90;;;17.75;100.00;98055.50;5008955;28;20104;-72
2023/05/31 07:43:51;;;;;;;195.93;8.25;;;18.50;99.90;;;17.95;100.00;98054.25;5012290;28;20490;-72
2023/05/31 07:46:18;;;;;;;17.55;2.65;;;18.60;99.90;;;17.70;100.00;98048.88;4997743;28;20069;-72
2023/05/31 07:48:45;;;;;;;23.65;3.15;;;18.50;99.90;;;17.78;100.00;98047.44;5012900;28;20172;-72
2023/05/31 07:51:12;;;;;;;52.78;3.70;;;18.60;99.80;;;17.75;100.00;98057.31;4994088;28;20518;-73
2023/05/31 07:53:40;;;;;;;27.65;2.60;;;18.60;99.40;;;18.12;100.00;98042.63;4994686;28;20046;-72
2023/05/31 07:56:07;;;;;;;8.93;2.45;;;18.70;99.90;;;18.39;100.00;98044.38;4997086;28;20057;-72
2023/05/31 07:58:34;;;;;;;8.60;2.03;;;18.90;99.90;;;18.19;100.00;98043.91;5007868;28;20052;-72
2023/05/31 08:01:02;;;;;;;80.95;6.72;;;19.00;99.60;;;18.69;100.00;98044.09;4983997;28;20138;-72
2023/05/31 08:03:31;;;;;;;8.35;2.50;;;19.10;99.80;;;18.70;100.00;98044.94;5010184;28;20061;-72
2023/05/31 08:05:58;;;;;;;12.77;2.35;;;19.20;99.60;;;18.70;100.00;98040.53;5011330;28;20533;-72
2023/05/31 08:08:27;;;;;;;17.35;2.50;;;19.30;98.50;;;18.35;100.00;98038.47;5009435;28;20060;-72
2023/05/31 08:10:54;;;;;;;11.05;2.50;;;19.30;97.90;;;18.52;100.00;98037.38;5012015;28;20056;-72
2023/05/31 08:13:23;;;;;;;23.85;2.88;;;19.30;98.00;;;18.64;100.00;98029.59;5015310;28;20781;-72
2023/05/31 08:15:51;;;;;;;7.65;2.13;;;19.30;98.20;;;18.83;100.00;98021.31;4996460;28;20362;-72
2023/05/31 08:18:19;;;;;;;6.88;1.85;;;19.40;98.30;;;18.81;100.00;98018.78;5019913;28;20046;-72
2023/05/31 08:20:46;;;;;;;14.20;2.28;;;19.60;97.90;;;18.61;100.00;98012.25;5010132;28;20049;-72
2023/05/31 08:23:20;;;;;;;15.98;2.33;;;19.60;97.10;;;18.57;100.00;98022.13;5012595;28;20584;-72
2023/05/31 08:25:48;;;;;;;8.02;1.90;;;19.60;97.30;;;18.87;100.00;98014.88;5010380;28;20528;-72
2023/05/31 08:28:15;;;;;;;13.57;1.98;;;19.60;97.10;;;19.08;100.00;98010.75;5011300;28;20078;-72
2023/05/31 08:30:43;;;;;;;79.07;5.00;;;19.70;97.40;;;19.35;100.00;98005.31;5009076;28;20133;-72
2023/05/31 08:33:31;;;;;;;8.77;1.90;;;19.90;96.20;;;19.67;100.00;98007.41;4987658;28;20050;-72
2023/05/31 08:36:04;;;;;;;6.40;2.17;;;20.00;95.60;;;20.05;100.00;98001.16;4984083;28;20135;-72
2023/05/31 08:38:35;;;;;;;10.02;1.75;;;20.20;96.10;;;20.14;100.00;98008.38;4990049;28;20046;-72
2023/05/31 08:41:04;;;;;;;6.97;1.70;;;20.30;95.70;;;20.24;100.00;98009.34;5005525;28;20050;-72
2023/05/31 08:43:31;;;;;;;7.80;1.85;;;20.50;95.20;;;20.86;100.00;98004.69;4991763;28;20046;-73
2023/05/31 08:45:59;;;;;;;6.00;1.90;;;20.70;94.80;;;21.44;100.00;98000.13;4985226;28;20049;-73
2023/05/31 08:48:40;;;;;;;8.35;2.13;;;21.00;94.60;;;21.35;100.00;97994.69;5003085;28;20042;-73
2023/05/31 08:51:09;;;;;;;6.13;1.85;;;21.30;94.50;;;21.01;100.00;98002.69;5000185;28;20057;-73
2023/05/31 08:53:37;;;;;;;4.50;1.52;;;21.70;93.30;;;20.92;100.00;97998.97;5002497;28;20058;-72
2023/05/31 08:56:05;;;;;;;9.48;1.77;;;21.90;92.40;;;20.89;100.00;97994.75;5001958;28;20073;-72
2023/05/31 08:58:35;;;;;;;7.10;2.05;;;22.10;92.40;;;21.27;100.00;97997.97;4989104;28;20494;-73
2023/05/31 09:01:03;;;;;;;4.53;1.77;;;22.40;91.80;;;22.86;100.00;97994.53;4998331;28;20070;-72
2023/05/31 09:03:32;;;;;;;6.57;2.03;;;23.10;92.20;;;21.80;100.00;98003.38;5005573;28;20063;-73
2023/05/31 09:06:00;;;;;;;5.82;1.50;;;23.60;90.30;;;22.80;99.64;97983.63;5001178;28;20057;-74
2023/05/31 09:08:30;;;;;;;8.00;1.75;;;23.70;90.10;;;22.85;99.94;97986.72;5002188;28;20099;-73
2023/05/31 09:10:57;;;;;;;6.30;1.48;;;24.20;90.00;;;23.25;97.84;97992.06;5008370;28;20121;-72
2023/05/31 09:13:25;;;;;;;5.55;1.50;;;24.50;89.40;;;23.06;96.09;97990.19;5000711;28;20050;-72
2023/05/31 09:15:52;;;;;;;5.82;1.33;;;24.80;87.20;;;22.90;95.37;97988.00;5006359;28;20053;-72
2023/05/31 09:18:21;;;;;;;6.38;1.90;;;25.40;85.80;;;23.20;96.39;97988.16;5002894;28;20049;-73
2023/05/31 09:20:49;;;;;;;7.07;1.40;;;25.40;85.00;;;22.90;94.66;97977.44;5009880;28;20057;-73
2023/05/31 09:23:17;;;;;;;4.88;1.55;;;25.30;83.60;;;23.63;96.51;97969.28;5010862;28;20068;-73
2023/05/31 09:25:51;;;;;;;15.45;2.30;;;25.40;84.80;;;23.43;89.42;97963.13;4996639;28;20077;-73
2023/05/31 09:28:22;;;;;;;9.43;2.10;;;25.30;80.80;;;23.83;88.38;97962.19;5001990;28;20054;-73
2023/05/31 09:31:08;;;;;;;6.25;1.60;;;25.70;80.40;;;23.46;89.00;97962.00;5007291;28;20046;-74
2023/05/31 09:33:41;;;;;;;8.38;1.90;;;26.30;80.50;;;24.57;91.38;97958.91;4987386;28;20121;-72
2023/05/31 09:36:11;;;;;;;7.15;1.20;;;26.10;82.00;;;24.75;87.37;97958.16;5007495;28;20141;-73
2023/05/31 09:38:38;;;;;;;10.55;2.13;;;26.40;80.60;;;24.47;86.97;97968.72;4995642;28;20045;-73
2023/05/31 09:41:19;;;;;;;7.25;1.77;;;26.70;79.80;;;24.65;88.52;97960.00;5001686;28;20194;-73
2023/05/31 09:43:52;;;;;;;5.35;1.63;;;26.90;79.90;;;24.27;87.31;97954.63;4986410;28;20430;-73
2023/05/31 09:46:21;;;;;;;9.02;1.70;;;26.60;79.20;;;24.19;80.85;97957.97;5003756;28;20045;-73
2023/05/31 09:49:06;;;;;;;5.78;1.17;;;26.60;75.70;;;25.20;81.49;97952.97;5006072;28;20124;-73
2023/05/31 09:51:33;;;;;;;4.18;1.30;;;26.60;77.00;;;26.31;78.54;97952.66;5010053;28;20072;-73
2023/05/31 09:54:13;;;;;;;16.80;1.90;;;27.00;77.20;;;24.21;76.03;97968.47;5011190;28;20053;-73
2023/05/31 09:56:41;;;;;;;13.32;1.75;;;27.00;73.50;;;23.24;76.02;97965.72;5007912;28;20148;-73
2023/05/31 09:59:09;;;;;;;8.18;1.92;;;26.30;72.90;;;25.01;78.12;97956.50;5002538;28;20779;-73
2023/05/31 10:01:37;;;;;;;5.22;1.60;;;26.30;75.20;;;24.36;75.78;97966.22;5004952;28;20092;-73
2023/05/31 10:04:05;;;;;;;4.78;1.80;;;26.60;73.40;;;25.24;74.40;97953.47;4988197;28;20141;-73
2023/05/31 10:06:37;;;;;;;8.18;1.50;;;26.60;73.50;;;24.86;74.06;97952.69;4996350;28;20042;-73
2023/05/31 10:09:05;;;;;;;;;;;26.60;73.10;;;24.21;76.12;97950.72;4992225;28;20053;-73
2023/05/31 10:11:35;;;;;;;9.40;1.35;;;26.30;74.10;;;24.32;78.66;97965.66;4986983;28;19968;-74
2023/05/31 10:14:09;;;;;;;6.45;1.77;;;26.10;74.70;;;24.80;77.69;97958.56;5002619;28;20133;-73
2023/05/31 10:16:54;;;;;;;5.93;1.58;;;26.10;74.90;;;24.91;76.69;97955.72;4975897;28;20084;-73
2023/05/31 10:19:27;;;;;;;4.40;1.65;;;26.30;74.30;;;24.45;76.39;97964.50;4993500;28;20082;-73